createdAt,value
2019-05-29T00:00:05.736Z,87.65
2019-05-29T00:01:08.679Z,87.76
2019-05-29T00:02:05.961Z,88.17
2019-05-29T00:03:04.469Z,88.17
2019-05-29T00:04:04.444Z,88.37
2019-05-29T00:05:04.454Z,88.57
2019-05-29T00:06:04.417Z,88.78
2019-05-29T00:07:04.442Z,88.78
2019-05-29T00:08:04.403Z,88.78
2019-05-29T00:09:04.396Z,88.88
2019-05-29T00:10:04.387Z,88.98
2019-05-29T00:11:04.363Z,89.18
2019-05-29T00:12:04.394Z,89.18
2019-05-29T00:13:04.349Z,89.33
2019-05-29T00:14:18.743Z,89.33
2019-05-29T00:15:06.177Z,89.53
2019-05-29T00:16:04.337Z,89.43
2019-05-29T00:17:04.318Z,89.33
2019-05-29T00:18:04.305Z,89.29
2019-05-29T00:19:04.288Z,89.23
2019-05-29T00:20:04.281Z,89.18
2019-05-29T00:21:04.264Z,89.23
2019-05-29T00:22:04.274Z,89.33
2019-05-29T00:23:04.254Z,89.33
2019-05-29T00:24:04.219Z,89.23
2019-05-29T00:25:04.216Z,89.33
2019-05-29T00:26:04.213Z,89.43
2019-05-29T00:27:05.291Z,89.43
2019-05-29T00:28:04.194Z,89.43
2019-05-29T00:29:05.543Z,89.53
2019-05-29T00:30:04.156Z,89.43
2019-05-29T00:31:04.165Z,89.53
2019-05-29T00:32:04.178Z,89.33
2019-05-29T00:33:04.141Z,89.23
2019-05-29T00:34:04.106Z,89.12
2019-05-29T00:35:04.152Z,89.12
2019-05-29T00:36:04.088Z,89.33
2019-05-29T00:37:04.085Z,89.53
2019-05-29T00:38:04.139Z,89.33
2019-05-29T00:39:04.068Z,89.33
2019-05-29T00:40:04.048Z,89.33
2019-05-29T00:41:04.047Z,89.03
2019-05-29T00:42:04.029Z,89.12
2019-05-29T00:43:04.048Z,89.03
2019-05-29T00:44:04.009Z,89.03
2019-05-29T00:45:04.015Z,89.12
2019-05-29T00:46:03.992Z,89.03
2019-05-29T00:47:04.031Z,89.03
2019-05-29T00:48:03.994Z,89.03
2019-05-29T00:49:03.954Z,88.92
2019-05-29T00:50:03.932Z,88.71
2019-05-29T00:51:03.939Z,88.62
2019-05-29T00:52:03.930Z,88.82
2019-05-29T00:53:03.936Z,88.51
2019-05-29T00:54:03.905Z,88.82
2019-05-29T00:55:03.900Z,88.82
2019-05-29T00:56:03.875Z,88.82
2019-05-29T00:57:03.868Z,88.71
2019-05-29T00:58:03.876Z,88.82
2019-05-29T00:59:03.841Z,88.82
2019-05-29T01:00:03.825Z,88.62
2019-05-29T01:01:03.835Z,88.76
2019-05-29T01:02:03.826Z,88.86
2019-05-29T01:03:03.823Z,88.86
2019-05-29T01:04:03.805Z,89.17
2019-05-29T01:05:03.791Z,88.86
2019-05-29T01:06:03.761Z,88.86
2019-05-29T01:07:03.752Z,88.76
2019-05-29T01:08:03.752Z,88.65
2019-05-29T01:09:03.752Z,88.45
2019-05-29T01:10:03.722Z,88.35
2019-05-29T01:11:03.727Z,88.45
2019-05-29T01:12:03.700Z,88.45
2019-05-29T01:13:03.720Z,88.56
2019-05-29T01:14:03.701Z,88.04
2019-05-29T01:15:03.681Z,88.24
2019-05-29T01:16:03.651Z,88.24
2019-05-29T01:17:03.663Z,88.24
2019-05-29T01:18:03.655Z,88.14
2019-05-29T01:19:03.627Z,88.24
2019-05-29T01:20:03.634Z,88.35
2019-05-29T01:21:03.611Z,88.45
2019-05-29T01:22:03.586Z,88.56
2019-05-29T01:23:03.601Z,88.56
2019-05-29T01:24:03.578Z,88.35
2019-05-29T01:25:03.562Z,88.08
2019-05-29T01:26:03.538Z,87.67
2019-05-29T01:27:03.645Z,87.47
2019-05-29T01:28:03.551Z,87.77
2019-05-29T01:29:03.578Z,87.77
2019-05-29T01:30:03.514Z,87.67
2019-05-29T01:31:03.487Z,87.67
2019-05-29T01:32:03.486Z,87.77
2019-05-29T01:33:03.514Z,87.61
2019-05-29T01:34:03.491Z,87.61
2019-05-29T01:35:03.448Z,87.51
2019-05-29T01:36:03.443Z,87.76
2019-05-29T01:37:03.423Z,88.17
2019-05-29T01:38:03.452Z,88.27
2019-05-29T01:39:03.411Z,88.27
2019-05-29T01:40:18.669Z,88.31
2019-05-29T01:41:04.378Z,88.51
2019-05-29T01:42:03.372Z,88.82
2019-05-29T01:43:03.388Z,89.23
2019-05-29T01:44:03.347Z,89.43
2019-05-29T01:45:07.903Z,89.58
2019-05-29T01:46:04.332Z,89.89
2019-05-29T01:47:03.309Z,90.20
2019-05-29T01:48:03.336Z,90.40
2019-05-29T01:49:03.304Z,90.50
2019-05-29T01:50:03.327Z,90.81
2019-05-29T01:51:03.295Z,90.91
2019-05-29T01:52:03.265Z,90.91
2019-05-29T01:53:03.274Z,90.95
2019-05-29T01:54:03.248Z,91.06
2019-05-29T01:55:03.227Z,91.16
2019-05-29T01:56:03.236Z,91.27
2019-05-29T01:57:03.236Z,91.27
2019-05-29T01:58:03.233Z,91.37
2019-05-29T01:59:03.202Z,91.47
2019-05-29T02:00:03.183Z,91.57
2019-05-29T02:01:03.167Z,91.67
2019-05-29T02:02:03.166Z,91.82
2019-05-29T02:03:03.184Z,91.82
2019-05-29T02:04:03.143Z,92.03
2019-05-29T02:05:03.130Z,92.13
2019-05-29T02:06:03.122Z,92.03
2019-05-29T02:07:03.107Z,91.93
2019-05-29T02:08:03.233Z,92.03
2019-05-29T02:09:03.066Z,92.13
2019-05-29T02:10:03.063Z,92.33
2019-05-29T02:11:03.044Z,92.38
2019-05-29T02:12:03.038Z,92.38
2019-05-29T02:13:03.179Z,92.38
2019-05-29T02:14:03.040Z,92.38
2019-05-29T02:15:02.999Z,92.48
2019-05-29T02:16:03.027Z,92.48
2019-05-29T02:17:02.985Z,92.38
2019-05-29T02:18:02.989Z,92.48
2019-05-29T02:19:03.100Z,92.38
2019-05-29T02:20:02.963Z,92.27
2019-05-29T02:21:02.951Z,92.27
2019-05-29T02:22:02.945Z,92.27
2019-05-29T02:23:02.935Z,92.21
2019-05-29T02:24:02.969Z,92.11
2019-05-29T02:25:02.904Z,92.11
2019-05-29T02:26:02.899Z,92.01
2019-05-29T02:27:02.871Z,92.01
2019-05-29T02:28:02.869Z,92.01
2019-05-29T02:29:02.881Z,92.01
2019-05-29T02:30:02.852Z,92.01
2019-05-29T02:31:02.842Z,91.91
2019-05-29T02:32:02.836Z,91.91
2019-05-29T02:33:02.799Z,91.91
2019-05-29T02:34:07.025Z,91.91
2019-05-29T02:35:02.795Z,91.91
2019-05-29T02:36:02.788Z,91.91
2019-05-29T02:37:02.770Z,91.91
2019-05-29T02:38:02.765Z,91.91
2019-05-29T02:39:02.764Z,91.91
2019-05-29T02:40:02.742Z,91.95
2019-05-29T02:41:02.744Z,92.05
2019-05-29T02:42:02.729Z,92.36
2019-05-29T02:43:02.725Z,92.46
2019-05-29T02:44:02.797Z,92.36
2019-05-29T02:45:02.683Z,92.16
2019-05-29T02:46:02.658Z,92.16
2019-05-29T02:47:02.660Z,92.46
2019-05-29T02:48:02.656Z,92.46
2019-05-29T02:49:02.742Z,92.36
2019-05-29T02:50:02.626Z,92.46
2019-05-29T02:51:02.615Z,92.77
2019-05-29T02:52:02.594Z,92.97
2019-05-29T02:53:02.602Z,93.08
2019-05-29T02:54:02.627Z,93.08
2019-05-29T02:55:02.570Z,92.87
2019-05-29T02:56:02.559Z,92.97
2019-05-29T02:57:02.553Z,92.87
2019-05-29T02:58:02.542Z,92.82
2019-05-29T02:59:02.613Z,92.71
2019-05-29T03:00:02.546Z,92.61
2019-05-29T03:01:02.511Z,92.71
2019-05-29T03:02:02.529Z,92.82
2019-05-29T03:03:02.493Z,92.82
2019-05-29T03:04:02.498Z,92.92
2019-05-29T03:05:02.478Z,93.02
2019-05-29T03:06:02.454Z,93.12
2019-05-29T03:07:02.466Z,93.23
2019-05-29T03:08:02.430Z,93.23
2019-05-29T03:09:02.464Z,93.12
2019-05-29T03:10:02.413Z,93.02
2019-05-29T03:11:02.403Z,93.12
2019-05-29T03:12:02.393Z,93.33
2019-05-29T03:13:02.383Z,93.54
2019-05-29T03:14:02.623Z,93.54
2019-05-29T03:15:02.360Z,93.54
2019-05-29T03:16:10.389Z,93.43
2019-05-29T03:17:03.330Z,93.12
2019-05-29T03:18:02.340Z,93.12
2019-05-29T03:19:02.679Z,93.23
2019-05-29T03:20:02.301Z,93.33
2019-05-29T03:21:02.299Z,93.12
2019-05-29T03:22:02.294Z,93.02
2019-05-29T03:23:02.279Z,92.92
2019-05-29T03:24:02.296Z,92.92
2019-05-29T03:25:02.259Z,93.02
2019-05-29T03:26:02.240Z,92.82
2019-05-29T03:27:02.248Z,92.82
2019-05-29T03:28:02.220Z,92.92
2019-05-29T03:29:02.236Z,92.92
2019-05-29T03:30:02.201Z,92.92
2019-05-29T03:31:02.182Z,92.71
2019-05-29T03:32:02.194Z,92.61
2019-05-29T03:33:02.170Z,92.50
2019-05-29T03:34:02.274Z,92.71
2019-05-29T03:35:02.200Z,92.82
2019-05-29T03:36:02.160Z,92.82
2019-05-29T03:37:02.147Z,92.82
2019-05-29T03:38:02.103Z,92.61
2019-05-29T03:39:02.083Z,92.36
2019-05-29T03:40:02.135Z,92.16
2019-05-29T03:41:02.070Z,92.16
2019-05-29T03:42:02.067Z,92.05
2019-05-29T03:43:02.076Z,91.95
2019-05-29T03:44:02.044Z,91.74
2019-05-29T03:45:02.121Z,91.49
2019-05-29T03:46:02.037Z,91.29
2019-05-29T03:47:02.019Z,91.29
2019-05-29T03:48:02.009Z,90.98
2019-05-29T03:49:02.042Z,90.67
2019-05-29T03:50:01.975Z,90.67
2019-05-29T03:51:01.986Z,90.47
2019-05-29T03:52:01.960Z,90.16
2019-05-29T03:53:02.005Z,90.16
2019-05-29T03:54:02.021Z,90.12
2019-05-29T03:55:01.998Z,90.22
2019-05-29T03:56:01.922Z,90.12
2019-05-29T03:57:01.912Z,89.81
2019-05-29T03:58:01.883Z,89.70
2019-05-29T03:59:01.911Z,89.70
2019-05-29T04:00:01.882Z,89.70
2019-05-29T04:01:01.867Z,89.60
2019-05-29T04:02:01.843Z,89.50
2019-05-29T04:03:01.848Z,89.50
2019-05-29T04:04:01.843Z,89.09
2019-05-29T04:05:01.819Z,89.19
2019-05-29T04:06:01.819Z,88.98
2019-05-29T04:07:01.797Z,89.09
2019-05-29T04:08:01.782Z,89.19
2019-05-29T04:09:01.810Z,88.68
2019-05-29T04:10:01.766Z,88.98
2019-05-29T04:11:01.755Z,89.09
2019-05-29T04:12:01.767Z,89.09
2019-05-29T04:13:01.721Z,88.68
2019-05-29T04:14:01.745Z,88.37
2019-05-29T04:15:01.743Z,88.17
2019-05-29T04:16:01.693Z,88.17
2019-05-29T04:17:01.670Z,88.37
2019-05-29T04:18:01.676Z,88.47
2019-05-29T04:19:01.678Z,88.27
2019-05-29T04:20:01.694Z,87.85
2019-05-29T04:21:01.652Z,87.65
2019-05-29T04:22:01.636Z,87.96
2019-05-29T04:23:01.613Z,88.17
2019-05-29T04:24:01.637Z,88.37
2019-05-29T04:25:01.616Z,88.17
2019-05-29T04:26:01.581Z,87.65
2019-05-29T04:27:01.559Z,87.65
2019-05-29T04:28:01.570Z,87.85
2019-05-29T04:29:01.707Z,87.85
2019-05-29T04:30:01.548Z,87.65
2019-05-29T04:31:01.529Z,87.85
2019-05-29T04:32:01.542Z,87.92
2019-05-29T04:33:01.504Z,87.92
2019-05-29T04:34:01.483Z,87.92
2019-05-29T04:35:01.518Z,87.40
2019-05-29T04:36:01.458Z,87.30
2019-05-29T04:37:01.458Z,87.30
2019-05-29T04:38:01.443Z,87.26
2019-05-29T04:39:01.450Z,87.16
2019-05-29T04:40:01.669Z,86.85
2019-05-29T04:41:01.435Z,86.95
2019-05-29T04:42:01.422Z,86.65
2019-05-29T04:43:01.403Z,86.03
2019-05-29T04:44:01.437Z,86.13
2019-05-29T04:45:01.376Z,85.82
2019-05-29T04:46:01.377Z,86.13
2019-05-29T04:47:10.985Z,86.09
2019-05-29T04:48:02.377Z,85.89
2019-05-29T04:49:01.360Z,85.38
2019-05-29T04:50:01.343Z,85.68
2019-05-29T04:51:01.309Z,85.58
2019-05-29T04:52:01.290Z,85.38
2019-05-29T04:53:01.292Z,85.47
2019-05-29T04:54:01.258Z,86.09
2019-05-29T04:55:01.285Z,85.89
2019-05-29T04:56:01.231Z,84.86
2019-05-29T04:57:01.238Z,85.17
2019-05-29T04:58:01.210Z,85.17
2019-05-29T04:59:01.200Z,85.06
2019-05-29T05:00:01.249Z,85.23
2019-05-29T05:01:01.199Z,85.23
2019-05-29T05:02:01.165Z,85.03
2019-05-29T05:03:01.179Z,84.82
2019-05-29T05:04:01.146Z,84.72
2019-05-29T05:05:01.265Z,84.31
2019-05-29T05:06:01.129Z,84.00
2019-05-29T05:07:01.139Z,84.20
2019-05-29T05:08:01.126Z,84.58
2019-05-29T05:09:01.098Z,83.86
2019-05-29T05:10:01.112Z,83.65
2019-05-29T05:11:01.075Z,83.76
2019-05-29T05:12:01.079Z,84.17
2019-05-29T05:13:01.051Z,84.27
2019-05-29T05:14:01.724Z,83.96
2019-05-29T05:15:01.100Z,84.17
2019-05-29T05:16:01.033Z,83.76
2019-05-29T05:17:01.005Z,84.03
2019-05-29T05:18:01.012Z,83.92
2019-05-29T05:19:00.996Z,83.92
2019-05-29T05:20:01.023Z,83.20
2019-05-29T05:21:00.977Z,82.90
2019-05-29T05:22:00.971Z,82.28
2019-05-29T05:23:00.966Z,82.59
2019-05-29T05:24:00.935Z,82.08
2019-05-29T05:25:00.951Z,82.39
2019-05-29T05:26:00.947Z,82.69
2019-05-29T05:27:00.916Z,82.49
2019-05-29T05:28:00.902Z,82.49
2019-05-29T05:29:00.892Z,83.31
2019-05-29T05:30:00.897Z,83.06
2019-05-29T05:31:00.865Z,83.06
2019-05-29T05:32:00.852Z,82.35
2019-05-29T05:33:00.855Z,82.00
2019-05-29T05:34:00.837Z,81.90
2019-05-29T05:35:00.862Z,81.49
2019-05-29T05:36:00.812Z,81.04
2019-05-29T05:37:00.792Z,79.91
2019-05-29T05:38:00.787Z,80.29
2019-05-29T05:39:00.786Z,79.37
2019-05-29T05:40:00.791Z,78.52
2019-05-29T05:41:00.757Z,78.48
2019-05-29T05:42:00.760Z,77.28
2019-05-29T05:43:00.766Z,76.67
2019-05-29T05:44:00.728Z,76.63
2019-05-29T05:45:00.749Z,76.22
2019-05-29T05:46:00.718Z,75.98
2019-05-29T05:47:00.691Z,75.37
2019-05-29T05:48:00.718Z,74.25
2019-05-29T05:49:00.669Z,74.49
2019-05-29T05:50:00.687Z,74.32
2019-05-29T05:51:00.648Z,76.32
2019-05-29T05:52:00.630Z,74.86
2019-05-29T05:53:00.632Z,72.99
2019-05-29T05:54:00.621Z,72.08
2019-05-29T05:55:00.632Z,72.38
2019-05-29T05:56:00.591Z,72.52
2019-05-29T05:57:00.570Z,73.30
2019-05-29T05:58:00.562Z,72.14
2019-05-29T05:59:00.600Z,70.78
2019-05-29T06:00:00.536Z,70.01
2019-05-29T06:01:00.563Z,65.81
2019-05-29T06:02:00.544Z,63.69
2019-05-29T06:03:00.495Z,60.94
2019-05-29T06:04:00.486Z,58.38
2019-05-29T06:05:00.493Z,58.56
2019-05-29T06:06:00.517Z,56.98
2019-05-29T06:07:00.490Z,55.62
2019-05-29T06:08:00.485Z,55.34
2019-05-29T06:09:00.434Z,52.69
2019-05-29T06:10:00.435Z,52.49
2019-05-29T06:11:00.499Z,50.56
2019-05-29T06:12:00.418Z,49.98
2019-05-29T06:13:00.416Z,51.79
2019-05-29T06:14:00.433Z,53.70
2019-05-29T06:15:00.386Z,52.77
2019-05-29T06:16:00.436Z,51.97
2019-05-29T06:17:00.376Z,51.99
2019-05-29T06:18:19.552Z,50.48
2019-05-29T06:19:01.346Z,50.05
2019-05-29T06:20:00.333Z,50.93
2019-05-29T06:21:00.376Z,50.76
2019-05-29T06:22:00.334Z,51.56
2019-05-29T06:23:00.328Z,52.72
2019-05-29T06:24:00.289Z,50.01
2019-05-29T06:25:00.274Z,48.05
2019-05-29T06:26:00.341Z,48.95
2019-05-29T06:27:00.264Z,50.93
2019-05-29T06:28:00.273Z,51.24
2019-05-29T06:29:00.254Z,49.05
2019-05-29T06:30:00.227Z,50.43
2019-05-29T06:31:00.230Z,48.13
2019-05-29T06:32:00.206Z,47.00
2019-05-29T06:33:00.205Z,46.85
2019-05-29T06:34:00.181Z,48.02
2019-05-29T06:35:00.193Z,48.88
2019-05-29T06:36:00.205Z,47.93
2019-05-29T06:37:00.159Z,45.53
2019-05-29T06:38:00.155Z,48.61
2019-05-29T06:39:00.136Z,51.79
2019-05-29T06:40:00.200Z,51.26
2019-05-29T06:41:00.151Z,49.31
2019-05-29T06:42:00.093Z,47.16
2019-05-29T06:43:00.091Z,46.27
2019-05-29T06:44:00.086Z,44.15
2019-05-29T06:45:00.104Z,42.29
2019-05-29T06:46:00.097Z,40.95
2019-05-29T06:47:00.048Z,41.55
2019-05-29T06:48:00.060Z,41.53
2019-05-29T06:49:01.010Z,41.52
2019-05-29T06:50:00.030Z,41.60
2019-05-29T06:51:00.048Z,43.57
2019-05-29T06:52:00.017Z,44.95
2019-05-29T06:52:59.992Z,42.11
2019-05-29T06:54:00.009Z,43.41
2019-05-29T06:55:00.015Z,43.31
2019-05-29T06:56:01.453Z,41.88
2019-05-29T06:56:59.965Z,41.82
2019-05-29T06:57:59.957Z,41.50
2019-05-29T06:58:59.940Z,44.45
2019-05-29T06:59:59.951Z,42.83
2019-05-29T07:00:59.941Z,43.05
2019-05-29T07:01:59.934Z,42.51
2019-05-29T07:02:59.941Z,42.43
2019-05-29T07:04:11.082Z,41.69
2019-05-29T07:05:00.909Z,40.44
2019-05-29T07:05:59.918Z,41.08
2019-05-29T07:06:59.893Z,44.06
2019-05-29T07:08:16.506Z,44.07
2019-05-29T07:09:00.874Z,41.41
2019-05-29T07:09:59.862Z,40.56
2019-05-29T07:10:59.847Z,39.31
2019-05-29T07:11:59.920Z,38.81
2019-05-29T07:12:59.840Z,40.50
2019-05-29T07:13:59.839Z,37.81
2019-05-29T07:14:59.886Z,39.05
2019-05-29T07:15:59.788Z,38.32
2019-05-29T07:16:59.844Z,39.31
2019-05-29T07:17:59.768Z,39.17
2019-05-29T07:20:03.985Z,37.20
2019-05-29T07:20:59.782Z,40.08
2019-05-29T07:21:59.830Z,38.01
2019-05-29T07:22:59.754Z,38.99
2019-05-29T07:23:59.762Z,37.12
2019-05-29T07:24:59.722Z,37.62
2019-05-29T07:25:59.712Z,36.88
2019-05-29T07:26:59.748Z,36.35
2019-05-29T07:27:59.707Z,38.00
2019-05-29T07:29:08.054Z,34.83
2019-05-29T07:30:00.679Z,35.13
2019-05-29T07:31:03.074Z,34.10
2019-05-29T07:31:59.672Z,34.18
2019-05-29T07:32:59.634Z,36.64
2019-05-29T07:33:59.633Z,38.82
2019-05-29T07:35:03.645Z,38.29
2019-05-29T07:35:59.613Z,36.45
2019-05-29T07:36:59.634Z,36.21
2019-05-29T07:37:59.581Z,39.47
2019-05-29T07:39:03.705Z,36.32
2019-05-29T07:39:59.568Z,35.69
2019-05-29T07:40:59.637Z,34.73
2019-05-29T07:41:59.570Z,33.72
2019-05-29T07:42:59.541Z,35.03
2019-05-29T07:43:59.538Z,35.60
2019-05-29T07:44:59.538Z,35.71
2019-05-29T07:45:59.524Z,35.49
2019-05-29T07:46:59.569Z,35.87
2019-05-29T07:47:59.516Z,35.47
2019-05-29T07:48:59.616Z,35.54
2019-05-29T07:49:59.486Z,35.39
2019-05-29T07:51:07.140Z,35.11
2019-05-29T07:52:00.505Z,34.99
2019-05-29T07:52:59.511Z,35.26
2019-05-29T07:53:59.444Z,35.82
2019-05-29T07:54:59.437Z,38.15
2019-05-29T07:55:59.395Z,37.49
2019-05-29T07:56:59.439Z,37.63
2019-05-29T07:57:59.417Z,37.40
2019-05-29T07:59:02.886Z,36.92
2019-05-29T07:59:59.411Z,38.23
2019-05-29T08:01:12.208Z,39.42
2019-05-29T08:02:00.430Z,40.28
2019-05-29T08:02:59.354Z,37.99
2019-05-29T08:03:59.347Z,36.87
2019-05-29T08:04:59.325Z,38.82
2019-05-29T08:05:59.345Z,41.63
2019-05-29T08:06:59.349Z,42.47
2019-05-29T08:07:59.321Z,44.00
2019-05-29T08:08:59.296Z,41.36
2019-05-29T08:09:59.278Z,40.32
2019-05-29T08:10:59.306Z,37.67
2019-05-29T08:11:59.285Z,36.74
2019-05-29T08:12:59.271Z,37.20
2019-05-29T08:13:59.252Z,37.13
2019-05-29T08:14:59.244Z,35.74
2019-05-29T08:16:03.114Z,35.44
2019-05-29T08:16:59.227Z,38.01
2019-05-29T08:17:59.265Z,37.00
2019-05-29T08:18:59.931Z,38.35
2019-05-29T08:20:06.603Z,35.72
2019-05-29T08:21:00.194Z,34.68
2019-05-29T08:21:59.184Z,36.18
2019-05-29T08:22:59.226Z,34.97
2019-05-29T08:23:59.171Z,34.83
2019-05-29T08:24:59.157Z,32.80
2019-05-29T08:25:59.152Z,33.70
2019-05-29T08:26:59.157Z,33.42
2019-05-29T08:27:59.147Z,32.62
2019-05-29T08:28:59.113Z,33.11
2019-05-29T08:29:59.107Z,38.80
2019-05-29T08:30:59.093Z,38.43
2019-05-29T08:31:59.086Z,37.88
2019-05-29T08:32:59.082Z,35.72
2019-05-29T08:33:59.142Z,33.50
2019-05-29T08:34:59.092Z,34.40
2019-05-29T08:36:00.364Z,34.52
2019-05-29T08:37:06.687Z,33.31
2019-05-29T08:38:00.047Z,33.92
2019-05-29T08:38:59.031Z,33.09
2019-05-29T08:39:59.017Z,31.36
2019-05-29T08:40:59.007Z,30.49
2019-05-29T08:42:21.505Z,30.55
2019-05-29T08:42:59.994Z,33.50
2019-05-29T08:43:58.970Z,32.61
2019-05-29T08:44:58.969Z,31.71
2019-05-29T08:45:58.985Z,34.00
2019-05-29T08:47:09.701Z,35.19
2019-05-29T08:47:59.983Z,33.59
2019-05-29T08:48:58.923Z,31.87
2019-05-29T08:50:16.660Z,32.12
2019-05-29T08:50:59.908Z,33.07
2019-05-29T08:52:11.375Z,31.49
2019-05-29T08:53:02.505Z,31.60
2019-05-29T08:53:58.889Z,30.22
2019-05-29T08:54:58.876Z,32.39
2019-05-29T08:55:58.887Z,30.29
2019-05-29T08:56:58.832Z,32.55
2019-05-29T08:57:58.891Z,31.56
2019-05-29T08:58:58.820Z,32.65
2019-05-29T08:59:58.835Z,29.07
2019-05-29T09:00:58.846Z,30.37
2019-05-29T09:01:58.799Z,30.16
2019-05-29T09:02:58.793Z,29.30
2019-05-29T09:03:58.775Z,30.00
2019-05-29T09:04:58.779Z,29.61
2019-05-29T09:06:08.356Z,32.00
2019-05-29T09:07:00.038Z,31.60
2019-05-29T09:07:58.811Z,31.32
2019-05-29T09:08:58.737Z,31.04
2019-05-29T09:09:58.727Z,31.42
2019-05-29T09:10:58.857Z,31.99
2019-05-29T09:11:58.703Z,33.44
2019-05-29T09:13:04.848Z,30.60
2019-05-29T09:13:59.706Z,31.01
2019-05-29T09:14:58.792Z,29.11
2019-05-29T09:15:58.694Z,31.65
2019-05-29T09:16:58.738Z,30.08
2019-05-29T09:17:58.657Z,31.87
2019-05-29T09:18:58.641Z,30.76
2019-05-29T09:19:58.637Z,30.96
2019-05-29T09:21:03.374Z,31.15
2019-05-29T09:21:59.611Z,31.31
2019-05-29T09:22:58.637Z,30.40
2019-05-29T09:23:59.163Z,31.08
2019-05-29T09:24:58.586Z,30.40
2019-05-29T09:26:13.621Z,32.17
2019-05-29T09:26:59.561Z,32.03
2019-05-29T09:27:58.561Z,29.97
2019-05-29T09:28:58.588Z,31.99
2019-05-29T09:29:58.527Z,29.61
2019-05-29T09:30:58.521Z,30.76
2019-05-29T09:31:58.499Z,30.96
2019-05-29T09:32:58.507Z,31.62
2019-05-29T09:33:58.506Z,33.47
2019-05-29T09:34:58.495Z,29.81
2019-05-29T09:35:58.495Z,32.68
2019-05-29T09:36:58.523Z,30.21
2019-05-29T09:37:58.451Z,31.29
2019-05-29T09:38:58.463Z,31.45
2019-05-29T09:39:58.423Z,29.06
2019-05-29T09:40:58.426Z,28.78
2019-05-29T09:41:58.425Z,28.92
2019-05-29T09:42:58.407Z,29.20
2019-05-29T09:44:00.220Z,30.89
2019-05-29T09:44:58.383Z,31.83
2019-05-29T09:46:02.062Z,31.98
2019-05-29T09:46:58.378Z,32.64
2019-05-29T09:47:58.353Z,30.53
2019-05-29T09:49:01.400Z,29.02
2019-05-29T09:49:58.333Z,29.50
2019-05-29T09:50:58.351Z,29.98
2019-05-29T09:51:58.331Z,27.39
2019-05-29T09:52:59.004Z,28.19
2019-05-29T09:53:59.582Z,28.38
2019-05-29T09:54:58.391Z,26.89
2019-05-29T09:55:59.082Z,27.80
2019-05-29T09:56:59.459Z,28.41
2019-05-29T09:57:58.697Z,28.69
2019-05-29T09:58:59.769Z,29.88
2019-05-29T09:59:59.936Z,28.88
2019-05-29T10:01:18.599Z,28.88
2019-05-29T10:02:00.363Z,28.39
2019-05-29T10:02:59.498Z,29.34
2019-05-29T10:04:00.064Z,29.63
2019-05-29T10:05:00.448Z,30.58
2019-05-29T10:05:59.373Z,29.20
2019-05-29T10:06:59.438Z,28.92
2019-05-29T10:07:59.616Z,28.80
2019-05-29T10:08:58.599Z,29.43
2019-05-29T10:09:59.274Z,30.83
2019-05-29T10:11:06.860Z,29.65
2019-05-29T10:12:03.444Z,30.83
2019-05-29T10:13:00.021Z,30.52
2019-05-29T10:13:58.827Z,29.61
2019-05-29T10:14:58.938Z,29.10
2019-05-29T10:15:59.106Z,29.78
2019-05-29T10:16:59.314Z,30.47
2019-05-29T10:17:58.536Z,29.77
2019-05-29T10:18:59.803Z,28.58
2019-05-29T10:19:58.986Z,27.79
2019-05-29T10:20:59.561Z,28.28
2019-05-29T10:22:00.101Z,26.97
2019-05-29T10:22:58.968Z,26.77
2019-05-29T10:23:59.514Z,25.19
2019-05-29T10:24:58.719Z,25.16
2019-05-29T10:25:58.805Z,25.84
2019-05-29T10:26:59.045Z,25.16
2019-05-29T10:27:57.962Z,25.48
2019-05-29T10:29:07.802Z,27.55
2019-05-29T10:29:58.940Z,27.56
2019-05-29T10:31:02.911Z,27.84
2019-05-29T10:31:58.969Z,27.07
2019-05-29T10:32:57.925Z,28.76
2019-05-29T10:33:57.900Z,26.80
2019-05-29T10:34:57.889Z,27.49
2019-05-29T10:35:57.900Z,26.19
2019-05-29T10:36:57.885Z,27.59
2019-05-29T10:37:57.875Z,27.67
2019-05-29T10:38:57.860Z,27.86
2019-05-29T10:39:57.842Z,27.58
2019-05-29T10:41:06.260Z,27.08
2019-05-29T10:41:58.866Z,27.58
2019-05-29T10:42:57.819Z,27.94
2019-05-29T10:43:57.810Z,28.73
2019-05-29T10:44:57.801Z,28.32
2019-05-29T10:45:57.811Z,28.44
2019-05-29T10:46:57.812Z,27.60
2019-05-29T10:47:57.771Z,27.00
2019-05-29T10:48:57.770Z,28.28
2019-05-29T10:49:57.750Z,28.76
2019-05-29T10:50:57.742Z,25.52
2019-05-29T10:52:10.902Z,27.27
2019-05-29T10:52:58.723Z,28.36
2019-05-29T10:53:59.095Z,30.26
2019-05-29T10:54:57.679Z,28.17
2019-05-29T10:55:57.691Z,29.25
2019-05-29T10:56:57.704Z,28.46
2019-05-29T10:57:57.673Z,26.28
2019-05-29T10:58:59.934Z,27.74
2019-05-29T10:59:57.691Z,26.95
2019-05-29T11:00:57.662Z,28.45
2019-05-29T11:01:57.654Z,27.74
2019-05-29T11:02:57.867Z,26.46
2019-05-29T11:03:57.612Z,27.09
2019-05-29T11:04:59.556Z,28.94
2019-05-29T11:05:57.596Z,29.54
2019-05-29T11:06:57.595Z,30.00
2019-05-29T11:07:57.566Z,29.10
2019-05-29T11:08:57.571Z,28.39
2019-05-29T11:09:57.555Z,29.16
2019-05-29T11:10:57.517Z,27.80
2019-05-29T11:11:57.842Z,27.48
2019-05-29T11:12:57.544Z,29.06
2019-05-29T11:13:57.507Z,28.59
2019-05-29T11:14:57.501Z,27.78
2019-05-29T11:15:57.484Z,26.69
2019-05-29T11:16:57.713Z,29.96
2019-05-29T11:17:57.863Z,26.48
2019-05-29T11:18:57.713Z,29.77
2019-05-29T11:19:58.236Z,28.46
2019-05-29T11:20:57.657Z,27.99
2019-05-29T11:22:01.704Z,29.77
2019-05-29T11:22:58.442Z,27.68
2019-05-29T11:23:58.165Z,29.07
2019-05-29T11:24:58.435Z,28.08
2019-05-29T11:25:58.396Z,28.06
2019-05-29T11:26:58.582Z,28.90
2019-05-29T11:27:58.563Z,29.19
2019-05-29T11:28:58.623Z,28.56
2019-05-29T11:29:58.769Z,27.55
2019-05-29T11:30:57.323Z,25.25
2019-05-29T11:31:57.355Z,25.48
2019-05-29T11:33:00.473Z,24.37
2019-05-29T11:33:57.345Z,27.04
2019-05-29T11:34:57.586Z,24.68
2019-05-29T11:36:09.208Z,24.49
2019-05-29T11:36:58.380Z,25.31
2019-05-29T11:37:58.724Z,25.76
2019-05-29T11:39:01.390Z,26.68
2019-05-29T11:39:59.019Z,30.08
2019-05-29T11:41:22.809Z,27.30
2019-05-29T11:41:58.914Z,26.29
2019-05-29T11:42:57.235Z,26.58
2019-05-29T11:43:57.250Z,25.56
2019-05-29T11:44:57.201Z,24.34
2019-05-29T11:45:57.415Z,26.61
2019-05-29T11:46:58.198Z,27.98
2019-05-29T11:47:59.165Z,29.38
2019-05-29T11:48:57.394Z,30.68
2019-05-29T11:50:07.676Z,29.77
2019-05-29T11:50:58.307Z,28.88
2019-05-29T11:52:18.673Z,28.11
2019-05-29T11:52:58.561Z,27.73
2019-05-29T11:53:57.555Z,28.13
2019-05-29T11:54:59.968Z,27.25
2019-05-29T11:55:58.140Z,27.26
2019-05-29T11:56:57.428Z,29.35
2019-05-29T11:57:57.937Z,29.05
2019-05-29T11:58:57.265Z,27.29
2019-05-29T12:00:01.262Z,30.61
2019-05-29T12:00:59.136Z,30.01
2019-05-29T12:01:58.569Z,33.10
2019-05-29T12:02:57.748Z,31.60
2019-05-29T12:04:18.521Z,32.70
2019-05-29T12:05:00.719Z,31.51
2019-05-29T12:05:59.056Z,33.12
2019-05-29T12:06:57.574Z,32.63
2019-05-29T12:07:57.545Z,33.83
2019-05-29T12:08:57.919Z,32.43
2019-05-29T12:09:57.543Z,32.71
2019-05-29T12:10:57.392Z,28.97
2019-05-29T12:11:57.962Z,30.68
2019-05-29T12:12:57.585Z,31.81
2019-05-29T12:13:58.024Z,32.09
2019-05-29T12:15:05.944Z,29.71
2019-05-29T12:15:57.866Z,30.02
2019-05-29T12:16:58.215Z,31.52
2019-05-29T12:18:19.161Z,30.93
2019-05-29T12:18:57.890Z,33.03
2019-05-29T12:19:59.384Z,33.21
2019-05-29T12:20:58.302Z,32.79
2019-05-29T12:21:58.228Z,33.20
2019-05-29T12:23:18.901Z,34.14
2019-05-29T12:23:58.238Z,33.66
2019-05-29T12:24:56.788Z,33.98
2019-05-29T12:26:18.823Z,34.38
2019-05-29T12:26:58.533Z,33.78
2019-05-29T12:27:57.368Z,34.36
2019-05-29T12:29:03.730Z,34.34
2019-05-29T12:29:58.769Z,34.24
2019-05-29T12:30:56.972Z,34.03
2019-05-29T12:31:57.134Z,31.61
2019-05-29T12:32:56.880Z,31.71
2019-05-29T12:34:00.050Z,31.74
2019-05-29T12:34:58.578Z,31.35
2019-05-29T12:35:56.985Z,31.17
2019-05-29T12:36:57.359Z,32.07
2019-05-29T12:37:57.350Z,31.57
2019-05-29T12:38:57.837Z,31.87
2019-05-29T12:39:57.456Z,31.99
2019-05-29T12:40:57.656Z,32.47
2019-05-29T12:41:57.588Z,32.57
2019-05-29T12:42:57.529Z,33.89
2019-05-29T12:43:57.449Z,33.69
2019-05-29T12:44:57.563Z,32.60
2019-05-29T12:45:57.729Z,32.50
2019-05-29T12:46:57.703Z,33.32
2019-05-29T12:47:58.123Z,32.92
2019-05-29T12:48:57.573Z,32.42
2019-05-29T12:49:57.624Z,31.40
2019-05-29T12:50:58.056Z,31.90
2019-05-29T12:51:57.651Z,32.92
2019-05-29T12:52:57.697Z,33.02